Atlantic Beach, FL

2:44 PM EDT on July 25, 2016 (GMT -0400)
Reed Island | | Change Station

Elev 10 ft 30.39 °N, 81.52 °W | Updated 29 seconds ago

Clear
Clear
89.8 °F
Feels Like 93 °F
N
2.9
Wind Variable Wind from East
Gusts 13.0 mph

Today
High -- | Low -- °F
--% Chance of Precip.
Yesterday
High -- | Low -- °F
Precip. -- in
Pressure 30.06 in
Visibility 10.0 miles
Clouds Clear
Heat Index 93 °F
Dew Point 67 °F
Humidity 47%
Rainfall 0.00 in
Snow Depth Not available.
6:40 AM 8:24 PM
Waning Gibbous, 63% visible
METAR KCRG 251753Z 11012KT 10SM CLR 33/20 A3006 RMK AO2 SLP178 6//// T03330200 10339 20250 58011
Pressure 30.06 in
Visibility 10.0 miles
Clouds Clear
Heat Index 93 °F
Dew Point 67 °F
Humidity 47%
Rainfall 0.00 in
Snow Depth Not available.
6:40 AM 8:24 PM
Waning Gibbous, 63% visible
METAR KCRG 251753Z 11012KT 10SM CLR 33/20 A3006 RMK AO2 SLP178 6//// T03330200 10339 20250 58011
Record highs are possible for parts of the Northeast Monday and Tuesday, as parts of the central U.S. take a little breather from the worst of summer's dog day heat.

Expansive high pressure in the upper atmosphere will focus on parts of the East and West this week, sending heat indices well into the triple digits from the Mid-Atlantic states into the South.

10-Day Weather Forecast

Almanac

Astronomy

Jul. 25, 2016 Rise Set
Actual Time
Civil Twilight
Nautical Twilight
Astronomical Twilight
Moon
Length of Visible Light
Length of Day
Tomorrow will be .
, % of the Moon is Illuminated

Today's Extremes

State Highs State Lows

Community

WunderPhotos

Upload Photos

1,927,370 photos uploaded!

WunderBlog® & News

Nearby

Air Quality

  Air Quality AQ Index Pollutant
Not available.

Snow Depth

Station Depth Elevation

Earthquake Activity

City Distance Mag. Time & Date
Minimum magnitude displayed is 2.5.

Coastal Water Temperatures

Place Temperature

Stations

Nearby Weather Stations

Station Location Temp. Windchill Dew Point Humidity Wind Precip. Elev Updated Type
                   

Watches & Warnings

There are currently no watches in effect.